EZY43XQ EGKK-LGKF
Flight info
| Callsign | EZY43XQ |
|---|---|
| Flight time | 3h 4m |
| Altitude | 35000 |
| Route | BOGNA L612 XAMAB UL612 OGULO DCT OKASI DCT OKEKO DCT MOU DCT MADIV DCT MOKIP DCT TUFTA DCT KOGAS DCT MEDAM DCT NITAM/N0434F370 DCT MOGBO DCT ELB DCT MEDAL DCT RAVAL DCT LUNAK DCT ELVIN DCT RIFFI DCT MALOG DCT EDOPA DCT PEVIR DCT DELER DCT AGNIS DCT CRN DCT ADREN DCT TOMGI DCT RUTOM UM601 LASKO |
| Aircraft | A320/M-SDE2E3FGHIJ1RWXYZ/LB1 |
Departure
| Time | 2026-04-16 07:05 |
|---|---|
| Airport | London Gatwick Airport (EGKK) |
Arrival
| Time | 2026-04-16 10:10 |
|---|---|
| Airport | Kefallinia Airport (LGKF) |
| Time | Latitude | Longitude | Altitude | Speed | Heading |
|---|---|---|---|---|---|
| 2026-04-16 06:44 | 51.16025 | -0.18001 | 204 ft | 0 kts | 78° |
| 2026-04-16 06:57 | 51.16023 | -0.18020 | 203 ft | 4 kts | 78° |
| 2026-04-16 06:57 | 51.16017 | -0.18061 | 203 ft | 4 kts | 78° |
| 2026-04-16 06:57 | 51.16012 | -0.18103 | 203 ft | 4 kts | 86° |
| 2026-04-16 06:58 | 51.16016 | -0.18136 | 212 ft | 4 kts | 152° |
| 2026-04-16 06:58 | 51.16035 | -0.18145 | 204 ft | 4 kts | 168° |
| 2026-04-16 06:58 | 51.16042 | -0.18148 | 204 ft | 0 kts | 168° |
| 2026-04-16 07:00 | 51.16036 | -0.18145 | 216 ft | 6 kts | 168° |
| 2026-04-16 07:00 | 51.15932 | -0.18109 | 211 ft | 18 kts | 168° |
| 2026-04-16 07:00 | 51.15807 | -0.18066 | 213 ft | 19 kts | 167° |
| 2026-04-16 07:01 | 51.15620 | -0.18224 | 207 ft | 16 kts | 191° |
| 2026-04-16 07:01 | 51.15508 | -0.18194 | 208 ft | 17 kts | 167° |
| 2026-04-16 07:01 | 51.15392 | -0.18144 | 206 ft | 18 kts | 162° |
| 2026-04-16 07:01 | 51.15268 | -0.18103 | 210 ft | 19 kts | 166° |
| 2026-04-16 07:02 | 51.15232 | -0.17944 | 208 ft | 16 kts | 79° |
| 2026-04-16 07:02 | 51.15257 | -0.17776 | 204 ft | 14 kts | 78° |
| 2026-04-16 07:02 | 51.15281 | -0.17601 | 203 ft | 24 kts | 78° |
| 2026-04-16 07:02 | 51.15254 | -0.17319 | 208 ft | 27 kts | 119° |
| 2026-04-16 07:03 | 51.15277 | -0.17048 | 207 ft | 25 kts | 81° |
| 2026-04-16 07:03 | 51.15281 | -0.16844 | 204 ft | 5 kts | 149° |
| 2026-04-16 07:03 | 51.15281 | -0.16843 | 204 ft | 0 kts | 150° |
| 2026-04-16 07:03 | 51.15253 | -0.16821 | 207 ft | 17 kts | 158° |
| 2026-04-16 07:04 | 51.15116 | -0.16885 | 206 ft | 25 kts | 257° |
| 2026-04-16 07:04 | 51.15074 | -0.17147 | 204 ft | 26 kts | 257° |
| 2026-04-16 07:04 | 51.14989 | -0.17753 | 212 ft | 95 kts | 257° |
| 2026-04-16 07:04 | 51.14795 | -0.19165 | 207 ft | 161 kts | 259° |
| 2026-04-16 07:05 | 51.14526 | -0.21056 | 669 ft | 182 kts | 255° |
| 2026-04-16 07:05 | 51.14242 | -0.22990 | 1625 ft | 181 kts | 256° |
| 2026-04-16 07:05 | 51.13954 | -0.25051 | 2226 ft | 201 kts | 256° |
| 2026-04-16 07:05 | 51.13643 | -0.27293 | 2844 ft | 211 kts | 255° |
| 2026-04-16 07:06 | 51.13335 | -0.29545 | 3716 ft | 206 kts | 254° |
| 2026-04-16 07:06 | 51.13033 | -0.31739 | 4520 ft | 205 kts | 254° |
| 2026-04-16 07:06 | 51.12721 | -0.33983 | 5219 ft | 208 kts | 254° |
| 2026-04-16 07:06 | 51.12410 | -0.36230 | 5998 ft | 208 kts | 255° |
| 2026-04-16 07:07 | 51.12101 | -0.38480 | 6724 ft | 209 kts | 255° |
| 2026-04-16 07:07 | 51.11552 | -0.40602 | 7403 ft | 210 kts | 231° |
| 2026-04-16 07:07 | 51.10339 | -0.41922 | 8050 ft | 221 kts | 200° |
| 2026-04-16 07:07 | 51.08763 | -0.42020 | 8709 ft | 232 kts | 183° |
| 2026-04-16 07:08 | 51.07137 | -0.41811 | 9295 ft | 241 kts | 182° |
| 2026-04-16 07:08 | 51.05452 | -0.41590 | 9563 ft | 262 kts | 181° |
| 2026-04-16 07:08 | 51.03554 | -0.41335 | 10138 ft | 271 kts | 181° |
| 2026-04-16 07:08 | 51.01662 | -0.41080 | 10870 ft | 274 kts | 182° |
| 2026-04-16 07:09 | 50.99748 | -0.40822 | 11581 ft | 277 kts | 182° |
| 2026-04-16 07:09 | 50.97812 | -0.40569 | 12258 ft | 281 kts | 182° |
| 2026-04-16 07:09 | 50.95853 | -0.40316 | 12926 ft | 284 kts | 182° |
| 2026-04-16 07:09 | 50.93875 | -0.40066 | 13590 ft | 287 kts | 182° |
| 2026-04-16 07:10 | 50.91879 | -0.39817 | 14267 ft | 289 kts | 182° |
| 2026-04-16 07:10 | 50.89864 | -0.39562 | 14912 ft | 292 kts | 183° |
| 2026-04-16 07:10 | 50.87853 | -0.39307 | 15541 ft | 295 kts | 183° |
| 2026-04-16 07:10 | 50.85797 | -0.39044 | 16179 ft | 298 kts | 182° |
| 2026-04-16 07:11 | 50.83719 | -0.38477 | 16810 ft | 309 kts | 171° |
| 2026-04-16 07:11 | 50.81703 | -0.37103 | 17389 ft | 323 kts | 157° |
| 2026-04-16 07:11 | 50.79801 | -0.35136 | 17948 ft | 328 kts | 154° |
| 2026-04-16 07:11 | 50.77891 | -0.33135 | 18493 ft | 331 kts | 154° |
| 2026-04-16 07:12 | 50.75957 | -0.31123 | 19010 ft | 334 kts | 155° |
| 2026-04-16 07:12 | 50.74001 | -0.29100 | 19522 ft | 338 kts | 155° |
| 2026-04-16 07:12 | 50.72053 | -0.27091 | 20002 ft | 341 kts | 155° |
| 2026-04-16 07:12 | 50.70062 | -0.25034 | 20488 ft | 344 kts | 155° |
| 2026-04-16 07:13 | 50.68023 | -0.22922 | 20673 ft | 358 kts | 154° |
| 2026-04-16 07:13 | 50.65907 | -0.20721 | 20802 ft | 371 kts | 154° |
| 2026-04-16 07:13 | 50.63716 | -0.18433 | 20936 ft | 385 kts | 154° |
| 2026-04-16 07:13 | 50.61454 | -0.16060 | 21115 ft | 395 kts | 153° |
| 2026-04-16 07:14 | 50.59153 | -0.13637 | 21473 ft | 400 kts | 153° |
| 2026-04-16 07:14 | 50.56829 | -0.11190 | 21884 ft | 404 kts | 154° |
| 2026-04-16 07:14 | 50.54483 | -0.08730 | 22296 ft | 407 kts | 153° |
| 2026-04-16 07:14 | 50.52150 | -0.06289 | 22686 ft | 410 kts | 154° |
| 2026-04-16 07:15 | 50.49767 | -0.03804 | 23087 ft | 413 kts | 154° |
| 2026-04-16 07:15 | 50.47369 | -0.01312 | 23470 ft | 415 kts | 154° |
| 2026-04-16 07:15 | 50.44949 | 0.01197 | 23850 ft | 418 kts | 154° |
| 2026-04-16 07:15 | 50.42508 | 0.03725 | 24138 ft | 423 kts | 153° |
| 2026-04-16 07:16 | 50.40033 | 0.06278 | 24424 ft | 428 kts | 153° |
| 2026-04-16 07:16 | 50.37537 | 0.08852 | 24767 ft | 431 kts | 153° |
| 2026-04-16 07:16 | 50.35025 | 0.11449 | 25118 ft | 434 kts | 153° |
| 2026-04-16 07:16 | 50.32501 | 0.14059 | 25495 ft | 435 kts | 153° |
| 2026-04-16 07:17 | 50.30003 | 0.16640 | 25849 ft | 437 kts | 153° |
| 2026-04-16 07:17 | 50.27459 | 0.19261 | 26184 ft | 439 kts | 153° |
| 2026-04-16 07:17 | 50.24899 | 0.21891 | 26513 ft | 441 kts | 153° |
| 2026-04-16 07:17 | 50.22327 | 0.24532 | 26841 ft | 443 kts | 153° |
| 2026-04-16 07:18 | 50.19745 | 0.27179 | 27161 ft | 445 kts | 153° |
| 2026-04-16 07:18 | 50.17159 | 0.29838 | 27488 ft | 446 kts | 153° |
| 2026-04-16 07:18 | 50.14563 | 0.32514 | 27802 ft | 448 kts | 153° |
| 2026-04-16 07:18 | 50.11959 | 0.35199 | 28106 ft | 450 kts | 153° |
| 2026-04-16 07:19 | 50.09343 | 0.37887 | 28392 ft | 452 kts | 153° |
| 2026-04-16 07:19 | 50.06744 | 0.40546 | 28675 ft | 453 kts | 153° |
| 2026-04-16 07:19 | 50.04104 | 0.43239 | 28982 ft | 455 kts | 153° |
| 2026-04-16 07:19 | 50.01452 | 0.45942 | 29258 ft | 456 kts | 153° |
| 2026-04-16 07:20 | 49.98793 | 0.48652 | 29527 ft | 458 kts | 153° |
| 2026-04-16 07:20 | 49.96125 | 0.51372 | 29782 ft | 459 kts | 153° |
| 2026-04-16 07:20 | 49.93445 | 0.54100 | 30026 ft | 461 kts | 153° |
| 2026-04-16 07:20 | 49.90761 | 0.56832 | 30260 ft | 463 kts | 153° |
| 2026-04-16 07:21 | 49.88061 | 0.59573 | 30499 ft | 464 kts | 153° |
| 2026-04-16 07:21 | 49.85376 | 0.62388 | 30716 ft | 469 kts | 148° |
| 2026-04-16 07:21 | 49.82820 | 0.65575 | 30924 ft | 473 kts | 146° |
| 2026-04-16 07:21 | 49.80304 | 0.68744 | 31207 ft | 472 kts | 146° |
| 2026-04-16 07:22 | 49.77758 | 0.71953 | 31517 ft | 472 kts | 146° |
| 2026-04-16 07:22 | 49.75216 | 0.75159 | 31818 ft | 471 kts | 146° |
| 2026-04-16 07:22 | 49.72675 | 0.78357 | 32118 ft | 471 kts | 146° |
| 2026-04-16 07:22 | 49.70135 | 0.81545 | 32404 ft | 471 kts | 146° |
| 2026-04-16 07:23 | 49.67591 | 0.84724 | 32681 ft | 470 kts | 146° |
| 2026-04-16 07:23 | 49.65049 | 0.87895 | 32967 ft | 470 kts | 146° |
| 2026-04-16 07:23 | 49.62511 | 0.91063 | 33269 ft | 469 kts | 146° |
| 2026-04-16 07:23 | 49.59972 | 0.94228 | 33534 ft | 469 kts | 146° |
| 2026-04-16 07:24 | 49.57470 | 0.97347 | 33788 ft | 469 kts | 146° |
| 2026-04-16 07:24 | 49.54937 | 1.00496 | 34051 ft | 468 kts | 146° |
| 2026-04-16 07:24 | 49.52402 | 1.03645 | 34318 ft | 468 kts | 146° |
| 2026-04-16 07:24 | 49.49866 | 1.06790 | 34586 ft | 468 kts | 146° |
| 2026-04-16 07:25 | 49.47333 | 1.09923 | 34858 ft | 467 kts | 146° |
| 2026-04-16 07:25 | 49.44801 | 1.13047 | 35118 ft | 467 kts | 146° |
| 2026-04-16 07:25 | 49.42267 | 1.16169 | 35228 ft | 465 kts | 146° |
| 2026-04-16 07:26 | 49.37249 | 1.22349 | 35248 ft | 461 kts | 146° |
| 2026-04-16 07:26 | 49.32279 | 1.28458 | 35249 ft | 461 kts | 146° |
| 2026-04-16 07:27 | 49.27278 | 1.34592 | 35247 ft | 460 kts | 146° |
| 2026-04-16 07:27 | 49.22278 | 1.40705 | 35262 ft | 460 kts | 146° |
| 2026-04-16 07:28 | 49.17269 | 1.46810 | 35261 ft | 460 kts | 146° |
| 2026-04-16 07:28 | 49.12294 | 1.52854 | 35251 ft | 460 kts | 146° |
| 2026-04-16 07:29 | 49.07287 | 1.58923 | 35252 ft | 460 kts | 146° |
| 2026-04-16 07:29 | 49.02271 | 1.64996 | 35264 ft | 460 kts | 146° |
| 2026-04-16 07:30 | 48.97249 | 1.71045 | 35259 ft | 460 kts | 146° |
| 2026-04-16 07:30 | 48.92263 | 1.77050 | 35262 ft | 460 kts | 146° |
| 2026-04-16 07:31 | 48.87240 | 1.83080 | 35261 ft | 460 kts | 146° |
| 2026-04-16 07:31 | 48.82211 | 1.89088 | 35272 ft | 460 kts | 146° |
| 2026-04-16 07:32 | 48.77185 | 1.95076 | 35276 ft | 459 kts | 146° |
| 2026-04-16 07:32 | 48.72171 | 2.01070 | 35276 ft | 459 kts | 146° |
| 2026-04-16 07:33 | 48.67181 | 2.06994 | 35278 ft | 458 kts | 146° |
| 2026-04-16 07:33 | 48.62163 | 2.12932 | 35284 ft | 458 kts | 146° |
| 2026-04-16 07:34 | 48.57164 | 2.18877 | 35287 ft | 458 kts | 143° |
| 2026-04-16 07:34 | 48.52608 | 2.25652 | 35279 ft | 460 kts | 139° |
| 2026-04-16 07:35 | 48.48100 | 2.32514 | 35278 ft | 460 kts | 139° |
| 2026-04-16 07:35 | 48.43613 | 2.39297 | 35280 ft | 460 kts | 139° |
| 2026-04-16 07:36 | 48.39084 | 2.46105 | 35280 ft | 460 kts | 139° |
| 2026-04-16 07:36 | 48.34564 | 2.52910 | 35281 ft | 460 kts | 139° |
| 2026-04-16 07:37 | 48.30018 | 2.59685 | 35276 ft | 459 kts | 142° |
| 2026-04-16 07:37 | 48.24836 | 2.64868 | 35282 ft | 447 kts | 160° |
| 2026-04-16 07:38 | 48.19203 | 2.68811 | 35288 ft | 448 kts | 158° |
| 2026-04-16 07:38 | 48.13704 | 2.73234 | 35286 ft | 449 kts | 155° |
| 2026-04-16 07:39 | 48.08243 | 2.77775 | 35282 ft | 447 kts | 159° |
| 2026-04-16 07:39 | 48.02616 | 2.81470 | 35292 ft | 444 kts | 161° |
| 2026-04-16 07:40 | 47.96925 | 2.85066 | 35293 ft | 444 kts | 161° |
| 2026-04-16 07:40 | 47.91228 | 2.88658 | 35292 ft | 444 kts | 161° |
| 2026-04-16 07:41 | 47.85536 | 2.92255 | 35298 ft | 445 kts | 161° |
| 2026-04-16 07:41 | 47.79882 | 2.95831 | 35303 ft | 444 kts | 161° |
| 2026-04-16 07:42 | 47.74190 | 2.99421 | 35307 ft | 444 kts | 161° |
| 2026-04-16 07:42 | 47.68501 | 3.02997 | 35306 ft | 444 kts | 161° |
| 2026-04-16 07:43 | 47.62814 | 3.06564 | 35306 ft | 444 kts | 161° |
| 2026-04-16 07:43 | 47.57124 | 3.10115 | 35307 ft | 443 kts | 161° |
| 2026-04-16 07:44 | 47.51482 | 3.13634 | 35307 ft | 443 kts | 161° |
| 2026-04-16 07:44 | 47.45805 | 3.17180 | 35307 ft | 443 kts | 161° |
| 2026-04-16 07:45 | 47.40130 | 3.20708 | 35306 ft | 443 kts | 161° |
| 2026-04-16 07:45 | 47.34448 | 3.24217 | 35312 ft | 443 kts | 161° |
| 2026-04-16 07:46 | 47.28802 | 3.27705 | 35310 ft | 443 kts | 161° |
| 2026-04-16 07:46 | 47.23125 | 3.31210 | 35313 ft | 443 kts | 161° |
| 2026-04-16 07:47 | 47.17444 | 3.34701 | 35315 ft | 443 kts | 161° |
| 2026-04-16 07:47 | 47.11762 | 3.38190 | 35316 ft | 442 kts | 161° |
| 2026-04-16 07:48 | 47.06078 | 3.41668 | 35316 ft | 443 kts | 161° |
| 2026-04-16 07:48 | 47.00427 | 3.45120 | 35316 ft | 443 kts | 161° |
| 2026-04-16 07:49 | 46.94733 | 3.48584 | 35314 ft | 443 kts | 161° |
| 2026-04-16 07:49 | 46.89042 | 3.52043 | 35310 ft | 443 kts | 161° |
| 2026-04-16 07:50 | 46.83352 | 3.55502 | 35308 ft | 443 kts | 161° |
| 2026-04-16 07:50 | 46.77704 | 3.58943 | 35307 ft | 444 kts | 158° |
| 2026-04-16 07:50 | 46.75018 | 3.61199 | 35306 ft | 448 kts | 147° |
| 2026-04-16 07:51 | 46.72656 | 3.64195 | 35304 ft | 453 kts | 135° |
| 2026-04-16 07:51 | 46.70726 | 3.67834 | 35300 ft | 456 kts | 123° |
| 2026-04-16 07:51 | 46.69313 | 3.71980 | 35290 ft | 459 kts | 111° |
| 2026-04-16 07:52 | 46.67672 | 3.80980 | 35281 ft | 461 kts | 105° |
| 2026-04-16 07:52 | 46.66140 | 3.89971 | 35279 ft | 461 kts | 105° |
| 2026-04-16 07:53 | 46.64586 | 3.99025 | 35283 ft | 461 kts | 105° |
| 2026-04-16 07:53 | 46.63013 | 4.08075 | 35285 ft | 461 kts | 105° |
| 2026-04-16 07:54 | 46.61430 | 4.17117 | 35292 ft | 461 kts | 105° |
| 2026-04-16 07:54 | 46.59842 | 4.26145 | 35292 ft | 461 kts | 105° |
| 2026-04-16 07:55 | 46.58266 | 4.35105 | 35294 ft | 460 kts | 105° |
| 2026-04-16 07:55 | 46.56681 | 4.44110 | 35295 ft | 460 kts | 105° |
| 2026-04-16 07:56 | 46.55081 | 4.53094 | 35285 ft | 459 kts | 106° |
| 2026-04-16 07:56 | 46.53473 | 4.62075 | 35289 ft | 459 kts | 106° |
| 2026-04-16 07:57 | 46.51873 | 4.70981 | 35289 ft | 459 kts | 106° |
| 2026-04-16 07:57 | 46.50252 | 4.79946 | 35289 ft | 459 kts | 106° |
| 2026-04-16 07:58 | 46.48629 | 4.88901 | 35281 ft | 459 kts | 106° |
| 2026-04-16 07:58 | 46.47003 | 4.97854 | 35281 ft | 458 kts | 106° |
| 2026-04-16 07:59 | 46.45370 | 5.06788 | 35280 ft | 458 kts | 106° |
| 2026-04-16 07:59 | 46.43739 | 5.15652 | 35279 ft | 458 kts | 106° |
| 2026-04-16 08:00 | 46.42089 | 5.24564 | 35279 ft | 458 kts | 106° |
| 2026-04-16 08:00 | 46.40434 | 5.33475 | 35287 ft | 458 kts | 106° |
| 2026-04-16 08:01 | 46.38254 | 5.42078 | 35282 ft | 454 kts | 121° |
| 2026-04-16 08:01 | 46.34557 | 5.49311 | 35281 ft | 449 kts | 133° |
| 2026-04-16 08:02 | 46.30496 | 5.56191 | 35279 ft | 450 kts | 133° |
| 2026-04-16 08:02 | 46.24413 | 5.66510 | 35283 ft | 449 kts | 133° |
| 2026-04-16 08:03 | 46.20345 | 5.73360 | 35283 ft | 449 kts | 133° |
| 2026-04-16 08:03 | 46.16299 | 5.80152 | 35274 ft | 449 kts | 133° |
| 2026-04-16 08:04 | 46.12229 | 5.86982 | 35275 ft | 449 kts | 133° |
| 2026-04-16 08:04 | 46.08155 | 5.93798 | 35266 ft | 449 kts | 133° |
| 2026-04-16 08:05 | 46.04075 | 6.00604 | 35275 ft | 449 kts | 133° |
| 2026-04-16 08:05 | 46.00019 | 6.07347 | 35270 ft | 448 kts | 133° |
| 2026-04-16 08:06 | 45.95941 | 6.14123 | 35274 ft | 448 kts | 133° |
| 2026-04-16 08:06 | 45.91855 | 6.20898 | 35259 ft | 448 kts | 133° |
| 2026-04-16 08:07 | 45.87763 | 6.27664 | 35270 ft | 449 kts | 133° |
| 2026-04-16 08:07 | 45.83691 | 6.34377 | 35265 ft | 449 kts | 133° |
| 2026-04-16 08:08 | 45.79300 | 6.40659 | 35267 ft | 445 kts | 146° |
| 2026-04-16 08:08 | 45.74261 | 6.45794 | 35266 ft | 445 kts | 147° |
| 2026-04-16 08:09 | 45.69211 | 6.50915 | 35277 ft | 445 kts | 147° |
| 2026-04-16 08:09 | 45.64160 | 6.56051 | 35259 ft | 445 kts | 147° |
| 2026-04-16 08:10 | 45.59144 | 6.61136 | 35250 ft | 446 kts | 146° |
| 2026-04-16 08:10 | 45.54084 | 6.66260 | 35249 ft | 446 kts | 146° |
| 2026-04-16 08:11 | 45.49022 | 6.71363 | 35243 ft | 446 kts | 147° |
| 2026-04-16 08:11 | 45.43959 | 6.76454 | 35237 ft | 445 kts | 146° |
| 2026-04-16 08:12 | 45.38900 | 6.81531 | 35236 ft | 445 kts | 146° |
| 2026-04-16 08:12 | 45.33872 | 6.86571 | 35228 ft | 445 kts | 146° |
| 2026-04-16 08:13 | 45.28797 | 6.91636 | 35228 ft | 445 kts | 146° |
| 2026-04-16 08:13 | 45.24057 | 6.97296 | 35222 ft | 447 kts | 136° |
| 2026-04-16 08:14 | 45.19607 | 7.03453 | 35211 ft | 447 kts | 137° |
| 2026-04-16 08:14 | 45.15161 | 7.09550 | 35196 ft | 448 kts | 137° |
| 2026-04-16 08:15 | 45.10735 | 7.15759 | 35191 ft | 448 kts | 131° |
| 2026-04-16 08:15 | 45.07077 | 7.22905 | 35181 ft | 449 kts | 125° |
| 2026-04-16 08:16 | 45.03501 | 7.30135 | 35176 ft | 449 kts | 125° |
| 2026-04-16 08:16 | 44.99926 | 7.37301 | 35171 ft | 449 kts | 126° |
| 2026-04-16 08:17 | 44.95887 | 7.43994 | 35171 ft | 448 kts | 136° |
| 2026-04-16 08:17 | 44.91447 | 7.50178 | 35170 ft | 448 kts | 136° |
| 2026-04-16 08:19 | 44.73727 | 7.74889 | 35170 ft | 449 kts | 135° |
| 2026-04-16 08:20 | 44.69269 | 7.81049 | 35175 ft | 449 kts | 135° |
| 2026-04-16 08:20 | 44.64808 | 7.87207 | 35177 ft | 449 kts | 135° |
| 2026-04-16 08:21 | 44.60379 | 7.93309 | 35178 ft | 450 kts | 135° |
| 2026-04-16 08:21 | 44.55909 | 7.99457 | 35172 ft | 450 kts | 135° |
| 2026-04-16 08:22 | 44.51434 | 8.05594 | 35165 ft | 450 kts | 134° |
| 2026-04-16 08:22 | 44.46947 | 8.11730 | 35165 ft | 451 kts | 134° |
| 2026-04-16 08:23 | 44.42492 | 8.17818 | 35164 ft | 451 kts | 134° |
| 2026-04-16 08:23 | 44.37989 | 8.23944 | 35153 ft | 451 kts | 134° |
| 2026-04-16 08:24 | 44.33490 | 8.30061 | 35147 ft | 452 kts | 134° |
| 2026-04-16 08:24 | 44.28983 | 8.36183 | 35139 ft | 452 kts | 134° |
| 2026-04-16 08:25 | 44.24466 | 8.42281 | 35138 ft | 452 kts | 135° |
| 2026-04-16 08:25 | 44.19977 | 8.48336 | 35141 ft | 452 kts | 135° |
| 2026-04-16 08:26 | 44.15465 | 8.54430 | 35140 ft | 452 kts | 134° |
| 2026-04-16 08:26 | 44.10945 | 8.60508 | 35148 ft | 452 kts | 134° |
| 2026-04-16 08:27 | 44.06425 | 8.66577 | 35146 ft | 452 kts | 135° |
| 2026-04-16 08:27 | 44.01929 | 8.72597 | 35152 ft | 452 kts | 134° |
| 2026-04-16 08:28 | 43.99654 | 8.75634 | 35272 ft | 454 kts | 135° |
| 2026-04-16 08:28 | 43.97376 | 8.78665 | 35464 ft | 455 kts | 134° |
| 2026-04-16 08:28 | 43.95086 | 8.81712 | 35652 ft | 456 kts | 134° |
| 2026-04-16 08:28 | 43.92794 | 8.84754 | 35852 ft | 456 kts | 134° |
| 2026-04-16 08:29 | 43.90501 | 8.87796 | 36067 ft | 456 kts | 134° |
| 2026-04-16 08:29 | 43.88210 | 8.90838 | 36114 ft | 456 kts | 133° |
| 2026-04-16 08:29 | 43.83655 | 8.96885 | 36114 ft | 457 kts | 133° |
| 2026-04-16 08:30 | 43.79062 | 9.02962 | 36121 ft | 457 kts | 133° |
| 2026-04-16 08:30 | 43.74461 | 9.09035 | 36115 ft | 457 kts | 133° |
| 2026-04-16 08:31 | 43.69864 | 9.15099 | 36112 ft | 457 kts | 133° |
| 2026-04-16 08:31 | 43.65288 | 9.21122 | 36115 ft | 458 kts | 133° |
| 2026-04-16 08:32 | 43.60671 | 9.27180 | 36118 ft | 458 kts | 133° |
| 2026-04-16 08:32 | 43.56045 | 9.33222 | 36123 ft | 458 kts | 133° |
| 2026-04-16 08:33 | 43.51417 | 9.39260 | 36123 ft | 458 kts | 133° |
| 2026-04-16 08:33 | 43.46794 | 9.45292 | 36128 ft | 458 kts | 133° |
| 2026-04-16 08:34 | 43.42162 | 9.51315 | 36126 ft | 458 kts | 133° |
| 2026-04-16 08:34 | 43.37557 | 9.57279 | 36125 ft | 458 kts | 133° |
| 2026-04-16 08:35 | 43.32918 | 9.63281 | 36121 ft | 458 kts | 133° |
| 2026-04-16 08:35 | 43.28280 | 9.69275 | 36117 ft | 458 kts | 132° |
| 2026-04-16 08:36 | 43.23634 | 9.75263 | 36109 ft | 458 kts | 133° |
| 2026-04-16 08:36 | 43.19016 | 9.81188 | 36110 ft | 458 kts | 133° |
| 2026-04-16 08:37 | 43.14363 | 9.87156 | 36110 ft | 458 kts | 132° |
| 2026-04-16 08:37 | 43.09703 | 9.93123 | 36105 ft | 459 kts | 132° |
| 2026-04-16 08:38 | 43.05039 | 9.99075 | 36108 ft | 459 kts | 132° |
| 2026-04-16 08:38 | 43.00409 | 10.04977 | 36108 ft | 458 kts | 131° |
| 2026-04-16 08:39 | 42.95751 | 10.10912 | 36109 ft | 458 kts | 131° |
| 2026-04-16 08:39 | 42.91086 | 10.16830 | 36112 ft | 458 kts | 131° |
| 2026-04-16 08:40 | 42.86414 | 10.22736 | 36116 ft | 457 kts | 131° |
| 2026-04-16 08:40 | 42.81782 | 10.28586 | 36110 ft | 457 kts | 131° |
| 2026-04-16 08:41 | 42.77122 | 10.34461 | 36110 ft | 457 kts | 131° |
| 2026-04-16 08:41 | 42.72465 | 10.40348 | 36104 ft | 456 kts | 130° |
| 2026-04-16 08:42 | 42.68089 | 10.46533 | 36102 ft | 453 kts | 126° |
| 2026-04-16 08:42 | 42.63896 | 10.52922 | 36101 ft | 453 kts | 126° |
| 2026-04-16 08:43 | 42.59709 | 10.59224 | 36105 ft | 453 kts | 127° |
| 2026-04-16 08:43 | 42.55420 | 10.65493 | 36106 ft | 453 kts | 127° |
| 2026-04-16 08:44 | 42.51102 | 10.71721 | 36104 ft | 453 kts | 127° |
| 2026-04-16 08:44 | 42.46790 | 10.77959 | 36105 ft | 453 kts | 127° |
| 2026-04-16 08:45 | 42.42520 | 10.84147 | 36108 ft | 452 kts | 127° |
| 2026-04-16 08:45 | 42.38226 | 10.90361 | 36108 ft | 452 kts | 127° |
| 2026-04-16 08:46 | 42.33934 | 10.96577 | 36110 ft | 452 kts | 127° |
| 2026-04-16 08:46 | 42.29641 | 11.02779 | 36110 ft | 451 kts | 128° |
| 2026-04-16 08:47 | 42.25346 | 11.08952 | 36114 ft | 451 kts | 128° |
| 2026-04-16 08:47 | 42.21076 | 11.15077 | 36111 ft | 451 kts | 128° |
| 2026-04-16 08:48 | 42.16780 | 11.21227 | 36119 ft | 450 kts | 128° |
| 2026-04-16 08:48 | 42.12487 | 11.27358 | 36119 ft | 449 kts | 128° |
| 2026-04-16 08:49 | 42.08223 | 11.33434 | 36122 ft | 449 kts | 129° |
| 2026-04-16 08:49 | 42.03936 | 11.39530 | 36117 ft | 448 kts | 129° |
| 2026-04-16 08:50 | 41.99652 | 11.45623 | 36112 ft | 448 kts | 129° |
| 2026-04-16 08:50 | 41.95373 | 11.51704 | 36110 ft | 448 kts | 129° |
| 2026-04-16 08:51 | 41.91080 | 11.57775 | 36112 ft | 448 kts | 129° |
| 2026-04-16 08:51 | 41.86814 | 11.63781 | 36109 ft | 447 kts | 129° |
| 2026-04-16 08:52 | 41.82522 | 11.69817 | 36106 ft | 447 kts | 129° |
| 2026-04-16 08:52 | 41.78964 | 11.74825 | 36104 ft | 446 kts | 129° |
| 2026-04-16 08:53 | 41.74010 | 11.81829 | 36100 ft | 445 kts | 129° |
| 2026-04-16 08:53 | 41.69750 | 11.87849 | 36099 ft | 446 kts | 129° |
| 2026-04-16 08:54 | 41.65462 | 11.93849 | 36096 ft | 446 kts | 129° |
| 2026-04-16 08:54 | 41.61888 | 11.98811 | 36091 ft | 445 kts | 129° |
| 2026-04-16 08:55 | 41.57588 | 12.04763 | 36089 ft | 445 kts | 130° |
| 2026-04-16 08:55 | 41.52599 | 12.11689 | 36092 ft | 445 kts | 130° |
| 2026-04-16 08:56 | 41.49028 | 12.16629 | 36095 ft | 445 kts | 130° |
| 2026-04-16 08:56 | 41.44735 | 12.22567 | 36097 ft | 445 kts | 130° |
| 2026-04-16 08:57 | 41.40444 | 12.28494 | 36097 ft | 444 kts | 130° |
| 2026-04-16 08:57 | 41.35453 | 12.35362 | 36097 ft | 444 kts | 130° |
| 2026-04-16 08:58 | 41.31886 | 12.40264 | 36095 ft | 444 kts | 130° |
| 2026-04-16 08:58 | 41.27597 | 12.46156 | 36096 ft | 443 kts | 130° |
| 2026-04-16 08:59 | 41.23312 | 12.52030 | 36095 ft | 442 kts | 131° |
| 2026-04-16 08:59 | 41.19152 | 12.58019 | 36094 ft | 440 kts | 127° |
| 2026-04-16 09:00 | 41.15249 | 12.64179 | 36092 ft | 439 kts | 126° |
| 2026-04-16 09:00 | 41.11340 | 12.70393 | 36092 ft | 439 kts | 127° |
| 2026-04-16 09:01 | 41.05375 | 12.79597 | 36091 ft | 438 kts | 128° |
| 2026-04-16 09:02 | 41.01373 | 12.85688 | 36091 ft | 438 kts | 128° |
| 2026-04-16 09:02 | 40.97410 | 12.91743 | 36092 ft | 438 kts | 128° |
| 2026-04-16 09:03 | 40.93435 | 12.97836 | 36092 ft | 437 kts | 128° |
| 2026-04-16 09:03 | 40.89454 | 13.03911 | 36092 ft | 437 kts | 128° |
| 2026-04-16 09:04 | 40.85475 | 13.09958 | 36091 ft | 436 kts | 128° |
| 2026-04-16 09:04 | 40.81531 | 13.15954 | 36090 ft | 435 kts | 128° |
| 2026-04-16 09:05 | 40.77568 | 13.21970 | 36091 ft | 434 kts | 128° |
| 2026-04-16 09:05 | 40.73599 | 13.27973 | 36089 ft | 434 kts | 129° |
| 2026-04-16 09:06 | 40.69633 | 13.33958 | 36090 ft | 433 kts | 129° |
| 2026-04-16 09:06 | 40.65691 | 13.39894 | 36093 ft | 433 kts | 129° |
| 2026-04-16 09:07 | 40.61731 | 13.45861 | 36095 ft | 433 kts | 129° |
| 2026-04-16 09:07 | 40.57764 | 13.51820 | 36100 ft | 433 kts | 129° |
| 2026-04-16 09:08 | 40.53800 | 13.57749 | 36100 ft | 431 kts | 129° |
| 2026-04-16 09:08 | 40.49962 | 13.63727 | 36102 ft | 430 kts | 127° |
| 2026-04-16 09:09 | 40.46263 | 13.69870 | 36099 ft | 428 kts | 126° |
| 2026-04-16 09:09 | 40.42570 | 13.76008 | 36095 ft | 428 kts | 127° |
| 2026-04-16 09:10 | 40.38846 | 13.82097 | 36098 ft | 428 kts | 127° |
| 2026-04-16 09:10 | 40.35136 | 13.88121 | 36098 ft | 427 kts | 127° |
| 2026-04-16 09:11 | 40.31397 | 13.94168 | 36098 ft | 427 kts | 127° |
| 2026-04-16 09:11 | 40.27667 | 14.00211 | 36097 ft | 426 kts | 127° |
| 2026-04-16 09:12 | 40.23933 | 14.06225 | 36094 ft | 425 kts | 128° |
| 2026-04-16 09:12 | 40.20216 | 14.12172 | 36096 ft | 425 kts | 128° |
| 2026-04-16 09:13 | 40.16476 | 14.18156 | 36094 ft | 425 kts | 128° |
| 2026-04-16 09:13 | 40.12747 | 14.24139 | 36093 ft | 424 kts | 128° |
| 2026-04-16 09:14 | 40.09024 | 14.30102 | 36088 ft | 424 kts | 128° |
| 2026-04-16 09:14 | 40.05323 | 14.36032 | 36075 ft | 425 kts | 128° |
| 2026-04-16 09:15 | 40.01592 | 14.41998 | 36064 ft | 424 kts | 128° |
| 2026-04-16 09:15 | 39.97855 | 14.47960 | 36059 ft | 424 kts | 128° |
| 2026-04-16 09:16 | 39.94112 | 14.53911 | 36062 ft | 424 kts | 128° |
| 2026-04-16 09:16 | 39.90370 | 14.59852 | 36067 ft | 424 kts | 128° |
| 2026-04-16 09:17 | 39.86655 | 14.65746 | 36060 ft | 424 kts | 128° |
| 2026-04-16 09:17 | 39.82908 | 14.71670 | 36069 ft | 424 kts | 128° |
| 2026-04-16 09:18 | 39.79741 | 14.78083 | 36071 ft | 422 kts | 113° |
| 2026-04-16 09:18 | 39.77398 | 14.85080 | 36076 ft | 422 kts | 113° |
| 2026-04-16 09:19 | 39.75072 | 14.92016 | 36082 ft | 421 kts | 113° |
| 2026-04-16 09:19 | 39.72727 | 14.98990 | 36087 ft | 422 kts | 114° |
| 2026-04-16 09:20 | 39.70376 | 15.05961 | 36096 ft | 421 kts | 114° |
| 2026-04-16 09:20 | 39.68025 | 15.12919 | 36102 ft | 421 kts | 114° |
| 2026-04-16 09:21 | 39.65695 | 15.19819 | 36109 ft | 420 kts | 114° |
| 2026-04-16 09:21 | 39.63344 | 15.26751 | 36111 ft | 419 kts | 114° |
| 2026-04-16 09:22 | 39.60984 | 15.33657 | 36109 ft | 418 kts | 114° |
| 2026-04-16 09:22 | 39.58627 | 15.40547 | 36113 ft | 418 kts | 114° |
| 2026-04-16 09:23 | 39.56287 | 15.47381 | 36113 ft | 417 kts | 114° |
| 2026-04-16 09:23 | 39.53932 | 15.54253 | 36119 ft | 417 kts | 115° |
| 2026-04-16 09:24 | 39.51578 | 15.61117 | 36117 ft | 417 kts | 115° |
| 2026-04-16 09:24 | 39.49216 | 15.67970 | 36116 ft | 417 kts | 115° |
| 2026-04-16 09:25 | 39.46866 | 15.74770 | 36119 ft | 416 kts | 115° |
| 2026-04-16 09:25 | 39.44491 | 15.81609 | 36124 ft | 416 kts | 115° |
| 2026-04-16 09:26 | 39.42122 | 15.88443 | 36115 ft | 416 kts | 115° |
| 2026-04-16 09:26 | 39.39751 | 15.95271 | 36119 ft | 416 kts | 115° |
| 2026-04-16 09:27 | 39.37387 | 16.02046 | 36121 ft | 416 kts | 115° |
| 2026-04-16 09:27 | 39.35009 | 16.08855 | 36138 ft | 416 kts | 115° |
| 2026-04-16 09:28 | 39.32627 | 16.15659 | 36138 ft | 416 kts | 115° |
| 2026-04-16 09:28 | 39.30240 | 16.22455 | 36133 ft | 416 kts | 115° |
| 2026-04-16 09:29 | 39.27846 | 16.29257 | 36145 ft | 417 kts | 115° |
| 2026-04-16 09:29 | 39.25463 | 16.36009 | 36128 ft | 416 kts | 115° |
| 2026-04-16 09:30 | 39.23071 | 16.42789 | 36131 ft | 415 kts | 115° |
| 2026-04-16 09:30 | 39.20667 | 16.49562 | 36141 ft | 415 kts | 115° |
| 2026-04-16 09:31 | 39.18263 | 16.56332 | 36133 ft | 415 kts | 115° |
| 2026-04-16 09:31 | 39.15870 | 16.63045 | 36122 ft | 415 kts | 115° |
| 2026-04-16 09:32 | 39.13455 | 16.69798 | 36117 ft | 414 kts | 115° |
| 2026-04-16 09:32 | 39.11040 | 16.76541 | 36108 ft | 415 kts | 115° |
| 2026-04-16 09:33 | 39.08630 | 16.83291 | 36094 ft | 415 kts | 115° |
| 2026-04-16 09:33 | 39.06229 | 16.89981 | 36084 ft | 414 kts | 116° |
| 2026-04-16 09:34 | 39.03803 | 16.96705 | 36078 ft | 415 kts | 116° |
| 2026-04-16 09:34 | 39.01375 | 17.03429 | 36074 ft | 415 kts | 116° |
| 2026-04-16 09:35 | 38.99131 | 17.10255 | 36068 ft | 415 kts | 108° |
| 2026-04-16 09:35 | 38.97447 | 17.17300 | 36069 ft | 415 kts | 108° |
| 2026-04-16 09:36 | 38.95757 | 17.24399 | 36060 ft | 415 kts | 108° |
| 2026-04-16 09:36 | 38.94061 | 17.31493 | 36067 ft | 415 kts | 108° |
| 2026-04-16 09:37 | 38.92351 | 17.38579 | 36070 ft | 415 kts | 108° |
| 2026-04-16 09:37 | 38.90651 | 17.45606 | 36060 ft | 415 kts | 108° |
| 2026-04-16 09:38 | 38.88926 | 17.52682 | 36062 ft | 415 kts | 108° |
| 2026-04-16 09:38 | 38.87208 | 17.59745 | 36066 ft | 415 kts | 108° |
| 2026-04-16 09:39 | 38.85489 | 17.66806 | 36062 ft | 415 kts | 108° |
| 2026-04-16 09:39 | 38.83771 | 17.73817 | 36058 ft | 415 kts | 108° |
| 2026-04-16 09:40 | 38.82039 | 17.80867 | 36064 ft | 414 kts | 108° |
| 2026-04-16 09:40 | 38.80302 | 17.87910 | 36059 ft | 414 kts | 108° |
| 2026-04-16 09:41 | 38.78564 | 17.94951 | 36052 ft | 414 kts | 108° |
| 2026-04-16 09:41 | 38.76833 | 18.01935 | 36060 ft | 414 kts | 108° |
| 2026-04-16 09:42 | 38.75088 | 18.08949 | 36054 ft | 413 kts | 109° |
| 2026-04-16 09:42 | 38.73346 | 18.15960 | 36056 ft | 413 kts | 109° |
| 2026-04-16 09:43 | 38.71601 | 18.22965 | 36035 ft | 413 kts | 109° |
| 2026-04-16 09:43 | 38.69848 | 18.29902 | 36027 ft | 412 kts | 109° |
| 2026-04-16 09:44 | 38.68071 | 18.36870 | 36018 ft | 412 kts | 109° |
| 2026-04-16 09:44 | 38.66298 | 18.43836 | 36012 ft | 412 kts | 109° |
| 2026-04-16 09:45 | 38.64527 | 18.50796 | 35995 ft | 412 kts | 109° |
| 2026-04-16 09:45 | 38.62765 | 18.57707 | 35996 ft | 411 kts | 109° |
| 2026-04-16 09:46 | 38.60977 | 18.64667 | 36000 ft | 412 kts | 109° |
| 2026-04-16 09:46 | 38.59182 | 18.71620 | 35992 ft | 412 kts | 109° |
| 2026-04-16 09:47 | 38.57385 | 18.78577 | 35988 ft | 412 kts | 109° |
| 2026-04-16 09:47 | 38.55591 | 18.85539 | 35985 ft | 413 kts | 109° |
| 2026-04-16 09:48 | 38.53798 | 18.92461 | 35984 ft | 413 kts | 109° |
| 2026-04-16 09:48 | 38.51986 | 18.99423 | 35800 ft | 415 kts | 110° |
| 2026-04-16 09:48 | 38.51065 | 19.02936 | 35156 ft | 416 kts | 110° |
| 2026-04-16 09:49 | 38.50149 | 19.06421 | 34625 ft | 413 kts | 110° |
| 2026-04-16 09:49 | 38.49239 | 19.09880 | 34076 ft | 409 kts | 110° |
| 2026-04-16 09:49 | 38.48348 | 19.13267 | 33551 ft | 407 kts | 110° |
| 2026-04-16 09:49 | 38.47450 | 19.16677 | 33010 ft | 404 kts | 110° |
| 2026-04-16 09:50 | 38.46562 | 19.20062 | 32489 ft | 401 kts | 110° |
| 2026-04-16 09:50 | 38.45680 | 19.23424 | 31954 ft | 398 kts | 110° |
| 2026-04-16 09:50 | 38.44802 | 19.26763 | 31441 ft | 395 kts | 110° |
| 2026-04-16 09:50 | 38.43927 | 19.30073 | 30923 ft | 393 kts | 110° |
| 2026-04-16 09:51 | 38.43050 | 19.33358 | 30424 ft | 390 kts | 110° |
| 2026-04-16 09:51 | 38.42183 | 19.36609 | 29938 ft | 386 kts | 110° |
| 2026-04-16 09:51 | 38.41336 | 19.39798 | 29483 ft | 382 kts | 110° |
| 2026-04-16 09:51 | 38.40488 | 19.42997 | 29013 ft | 379 kts | 109° |
| 2026-04-16 09:52 | 38.39651 | 19.46160 | 28566 ft | 375 kts | 109° |
| 2026-04-16 09:52 | 38.38821 | 19.49291 | 28120 ft | 371 kts | 109° |
| 2026-04-16 09:52 | 38.37997 | 19.52383 | 27683 ft | 367 kts | 110° |
| 2026-04-16 09:52 | 38.37178 | 19.55446 | 27243 ft | 364 kts | 110° |
| 2026-04-16 09:53 | 38.36366 | 19.58481 | 26803 ft | 360 kts | 109° |
| 2026-04-16 09:53 | 38.35565 | 19.61486 | 26354 ft | 357 kts | 110° |
| 2026-04-16 09:53 | 38.34781 | 19.64422 | 25918 ft | 354 kts | 109° |
| 2026-04-16 09:53 | 38.33987 | 19.67378 | 25452 ft | 352 kts | 110° |
| 2026-04-16 09:54 | 38.33195 | 19.70313 | 24999 ft | 349 kts | 110° |
| 2026-04-16 09:54 | 38.32409 | 19.73224 | 24529 ft | 347 kts | 110° |
| 2026-04-16 09:54 | 38.31625 | 19.76125 | 24063 ft | 345 kts | 110° |
| 2026-04-16 09:54 | 38.30846 | 19.79002 | 23591 ft | 343 kts | 110° |
| 2026-04-16 09:55 | 38.30072 | 19.81870 | 23129 ft | 342 kts | 110° |
| 2026-04-16 09:55 | 38.29295 | 19.84729 | 22674 ft | 341 kts | 110° |
| 2026-04-16 09:55 | 38.28529 | 19.87535 | 22215 ft | 339 kts | 110° |
| 2026-04-16 09:55 | 38.27756 | 19.90369 | 21771 ft | 339 kts | 110° |
| 2026-04-16 09:56 | 38.26989 | 19.93193 | 21329 ft | 337 kts | 110° |
| 2026-04-16 09:56 | 38.25982 | 19.95860 | 20887 ft | 334 kts | 127° |
| 2026-04-16 09:56 | 38.24301 | 19.97868 | 20325 ft | 336 kts | 148° |
| 2026-04-16 09:56 | 38.22100 | 19.98872 | 19807 ft | 340 kts | 171° |
| 2026-04-16 09:57 | 38.19740 | 19.98731 | 19351 ft | 342 kts | 188° |
| 2026-04-16 09:57 | 38.17399 | 19.98249 | 18883 ft | 340 kts | 185° |
| 2026-04-16 09:57 | 38.15053 | 19.97931 | 18423 ft | 338 kts | 182° |
| 2026-04-16 09:57 | 38.12738 | 19.97755 | 17968 ft | 337 kts | 180° |
| 2026-04-16 09:58 | 38.10402 | 19.97720 | 17525 ft | 335 kts | 177° |
| 2026-04-16 09:58 | 38.08079 | 19.97853 | 17079 ft | 333 kts | 173° |
| 2026-04-16 09:58 | 38.05775 | 19.98144 | 16638 ft | 332 kts | 171° |
| 2026-04-16 09:58 | 38.03505 | 19.98617 | 16204 ft | 329 kts | 163° |
| 2026-04-16 09:59 | 38.01447 | 19.99798 | 15780 ft | 324 kts | 143° |
| 2026-04-16 09:59 | 37.99882 | 20.01813 | 15357 ft | 321 kts | 123° |
| 2026-04-16 09:59 | 37.98981 | 20.04380 | 14939 ft | 320 kts | 103° |
| 2026-04-16 09:59 | 37.98756 | 20.07141 | 14517 ft | 320 kts | 93° |
| 2026-04-16 10:00 | 37.98712 | 20.09952 | 14097 ft | 319 kts | 87° |
| 2026-04-16 10:00 | 37.99127 | 20.12703 | 13746 ft | 318 kts | 73° |
| 2026-04-16 10:00 | 37.99946 | 20.15307 | 13312 ft | 317 kts | 69° |
| 2026-04-16 10:01 | 38.01615 | 20.20443 | 12578 ft | 311 kts | 70° |
| 2026-04-16 10:01 | 38.02435 | 20.22981 | 12150 ft | 311 kts | 70° |
| 2026-04-16 10:01 | 38.03071 | 20.25561 | 11759 ft | 305 kts | 85° |
| 2026-04-16 10:01 | 38.02856 | 20.28163 | 11313 ft | 302 kts | 108° |
| 2026-04-16 10:02 | 38.01753 | 20.30432 | 10814 ft | 307 kts | 134° |
| 2026-04-16 10:02 | 38.00085 | 20.32127 | 10387 ft | 307 kts | 140° |
| 2026-04-16 10:02 | 37.98466 | 20.33873 | 9965 ft | 305 kts | 134° |
| 2026-04-16 10:02 | 37.97015 | 20.35819 | 9532 ft | 303 kts | 127° |
| 2026-04-16 10:03 | 37.95774 | 20.37958 | 9098 ft | 300 kts | 120° |
| 2026-04-16 10:03 | 37.94761 | 20.40261 | 8664 ft | 299 kts | 113° |
| 2026-04-16 10:03 | 37.93975 | 20.42680 | 8276 ft | 295 kts | 107° |
| 2026-04-16 10:03 | 37.93414 | 20.45120 | 7853 ft | 291 kts | 100° |
| 2026-04-16 10:04 | 37.93067 | 20.47587 | 7414 ft | 277 kts | 94° |
| 2026-04-16 10:04 | 37.92929 | 20.49965 | 6994 ft | 265 kts | 88° |
| 2026-04-16 10:04 | 37.92978 | 20.52238 | 6589 ft | 253 kts | 83° |
| 2026-04-16 10:04 | 37.93190 | 20.54398 | 6196 ft | 242 kts | 77° |
| 2026-04-16 10:05 | 37.93537 | 20.56437 | 5814 ft | 232 kts | 73° |
| 2026-04-16 10:05 | 37.94003 | 20.58347 | 5441 ft | 223 kts | 68° |
| 2026-04-16 10:05 | 37.94582 | 20.60140 | 5088 ft | 217 kts | 62° |
| 2026-04-16 10:05 | 37.95501 | 20.61554 | 4738 ft | 210 kts | 34° |
| 2026-04-16 10:06 | 37.96840 | 20.62200 | 4374 ft | 208 kts | 6° |
| 2026-04-16 10:06 | 37.98257 | 20.61932 | 4001 ft | 209 kts | 338° |
| 2026-04-16 10:06 | 37.99487 | 20.60944 | 3621 ft | 209 kts | 328° |
| 2026-04-16 10:06 | 38.00675 | 20.59891 | 3246 ft | 208 kts | 328° |
| 2026-04-16 10:07 | 38.01842 | 20.58855 | 3024 ft | 196 kts | 328° |
| 2026-04-16 10:07 | 38.02889 | 20.57919 | 3015 ft | 172 kts | 328° |
| 2026-04-16 10:07 | 38.03805 | 20.57103 | 3017 ft | 153 kts | 328° |
| 2026-04-16 10:07 | 38.04656 | 20.56353 | 2772 ft | 154 kts | 328° |
| 2026-04-16 10:08 | 38.05590 | 20.55533 | 2147 ft | 172 kts | 327° |
| 2026-04-16 10:08 | 38.06613 | 20.54632 | 1529 ft | 183 kts | 326° |
| 2026-04-16 10:08 | 38.07647 | 20.53712 | 1147 ft | 177 kts | 325° |
| 2026-04-16 10:08 | 38.08627 | 20.52841 | 845 ft | 165 kts | 324° |
| 2026-04-16 10:09 | 38.09537 | 20.52032 | 577 ft | 153 kts | 325° |
| 2026-04-16 10:09 | 38.10390 | 20.51280 | 329 ft | 147 kts | 325° |
| 2026-04-16 10:09 | 38.11257 | 20.50635 | 99 ft | 143 kts | 332° |
| 2026-04-16 10:09 | 38.11971 | 20.50071 | 51 ft | 84 kts | 324° |
| 2026-04-16 10:10 | 38.12239 | 20.49834 | 53 ft | 33 kts | 326° |
| 2026-04-16 10:10 | 38.12439 | 20.49662 | 52 ft | 35 kts | 326° |
| 2026-04-16 10:10 | 38.12646 | 20.49490 | 49 ft | 36 kts | 327° |
| 2026-04-16 10:10 | 38.12829 | 20.49318 | 50 ft | 21 kts | 298° |
| 2026-04-16 10:11 | 38.12889 | 20.49284 | 49 ft | 1 kts | 68° |
| 2026-04-16 10:11 | 38.12846 | 20.49342 | 49 ft | 22 kts | 148° |
| 2026-04-16 10:11 | 38.12678 | 20.49483 | 51 ft | 31 kts | 146° |
| 2026-04-16 10:11 | 38.12502 | 20.49636 | 50 ft | 31 kts | 145° |
| 2026-04-16 10:12 | 38.12326 | 20.49789 | 55 ft | 31 kts | 147° |
| 2026-04-16 10:12 | 38.12139 | 20.49940 | 54 ft | 32 kts | 147° |
| 2026-04-16 10:12 | 38.11948 | 20.50096 | 52 ft | 33 kts | 144° |
| 2026-04-16 10:12 | 38.11892 | 20.50288 | 56 ft | 17 kts | 111° |
| 2026-04-16 10:13 | 38.11830 | 20.50390 | 53 ft | 13 kts | 83° |
| 2026-04-16 10:13 | 38.11855 | 20.50447 | 56 ft | 0 kts | 56° |
| 2026-04-16 10:13 | 38.11856 | 20.50450 | 56 ft | 0 kts | 56° |